Cosco Melbourne — V7IF5 — position and weather

sailwx.info

Track history (hours):
 
Tides and Currents Weather Stations Pressure Air Temp Water Temp Dewpoint Dewpoint Depression Visibility Wind Speed Wind Dir Waves Ship Positions

Cosco Melbourne

Last reported at 2015-Aug-01 07:32 UTC. Time now 2015-Aug-01 07:49 UTC.
Position N 31°20' E 121°39'.

Type: Ship (hazmat cat A). MMSI: 538002366.

Date/timePositionNaut miles runAvg speedWind from/ knotsBaromVisibWave heightAir tempDewpointWater temp
2015-Aug-01 07:32N 31°20' E 121°39'0 0.0
2015-Aug-01 06:32N 31°20' E 121°39'0 0.0
2015-Aug-01 05:32N 31°20' E 121°39'0 0.0
2015-Aug-01 04:32N 31°20' E 121°39'0 0.0
2015-Aug-01 03:28N 31°20' E 121°39'0 0.0
2015-Aug-01 02:28N 31°20' E 121°39'0 0.0
2015-Aug-01 01:31N 31°20' E 121°39'0 0.0
2015-Aug-01 00:30N 31°20' E 121°39'0 0.0
2015-Jul-31 23:33N 31°20' E 121°39'6 6.5
2015-Jul-31 22:34N 31°18' E 121°46'1312.8
2015-Jul-31 21:33N 31°15' E 122°00'1110.4
2015-Jul-31 20:33N 31°10' E 122°12'1111.4
2015-Jul-31 19:33N 31°06' E 122°24'8 7.7
2015-Jul-31 18:33N 31°07' E 122°33'3 0.9
2015-Jul-31 15:23N 31°09' E 122°36'0 0.0
2015-Jul-31 13:31N 31°09' E 122°36'0 0.0
2015-Jul-31 12:30N 31°09' E 122°36'0 0.0
2015-Jul-31 11:33N 31°09' E 122°36'0 0.0
2015-Jul-31 10:23N 31°09' E 122°36'0 0.0
2015-Jul-31 09:29N 31°09' E 122°36'0 0.0
2015-Jul-31 08:26N 31°09' E 122°36'0 0.1
2015-Jul-31 07:28N 31°09' E 122°36'0 0.0
2015-Jul-31 06:16N 31°09' E 122°36'0 0.0
2015-Jul-31 03:17N 31°09' E 122°36'0 0.0
2015-Jul-31 02:11N 31°09' E 122°36'0 0.0
2015-Jul-30 23:31N 31°09' E 122°36'0 0.0
2015-Jul-30 22:24N 31°09' E 122°36'0 0.0
2015-Jul-30 21:30N 31°09' E 122°36'0 0.0
2015-Jul-30 20:23N 31°09' E 122°36'0 0.0
2015-Jul-30 19:29N 31°09' E 122°36'0 0.0
2015-Jul-30 18:25N 31°09' E 122°36'0 0.0
2015-Jul-30 17:28N 31°09' E 122°36'0 0.0
2015-Jul-30 13:09N 31°09' E 122°36'0 0.0
2015-Jul-30 12:20N 31°09' E 122°36'0 0.0
2015-Jul-30 11:32N 31°09' E 122°36'0 0.0
2015-Jul-30 10:31N 31°09' E 122°36'0 0.0
2015-Jul-30 09:31N 31°09' E 122°36'0 0.0
2015-Jul-30 08:33N 31°09' E 122°36'0 0.0
2015-Jul-30 07:24N 31°09' E 122°36'0 0.0
2015-Jul-30 06:29N 31°09' E 122°36'0 0.1
2015-Jul-30 05:29N 31°09' E 122°36'0 0.0
2015-Jul-30 00:33N 31°09' E 122°36'0 0.1
2015-Jul-29 23:26N 31°09' E 122°36'0 0.0
2015-Jul-29 21:31N 31°09' E 122°36'0 0.0
2015-Jul-29 20:22N 31°09' E 122°36'0 0.0
2015-Jul-29 19:28N 31°09' E 122°36'0 0.0
2015-Jul-29 18:30N 31°09' E 122°36'0 0.0
2015-Jul-29 17:33N 31°09' E 122°36'0 0.0
2015-Jul-29 16:26N 31°09' E 122°36'0 0.0
2015-Jul-29 15:32N 31°09' E 122°36'0 0.0
2015-Jul-29 13:22N 31°09' E 122°36'0 0.0
2015-Jul-29 11:27N 31°09' E 122°36'0 0.0
2015-Jul-29 10:33N 31°09' E 122°36'0 0.1
2015-Jul-29 09:32N 31°09' E 122°36'0 0.1
2015-Jul-29 08:32N 31°09' E 122°36'0 0.0
2015-Jul-29 07:28N 31°09' E 122°36'0 0.0
2015-Jul-29 06:19N 31°09' E 122°36'0 0.0
2015-Jul-29 05:06N 31°09' E 122°36'0 0.0
2015-Jul-28 23:07N 31°09' E 122°36'0 0.0
2015-Jul-28 22:21N 31°09' E 122°36'0 0.0
2015-Jul-28 21:33N 31°09' E 122°36'0 0.0
2015-Jul-28 20:24N 31°09' E 122°36'0 0.0
2015-Jul-28 19:32N 31°09' E 122°36'0 0.0
2015-Jul-28 18:29N 31°09' E 122°36'0 0.0
2015-Jul-28 17:28N 31°09' E 122°36'0 0.0
2015-Jul-28 16:31N 31°09' E 122°36'0 0.0
2015-Jul-28 15:15N 31°09' E 122°36'0 0.0
2015-Jul-28 12:26N 31°09' E 122°36'0 0.1
2015-Jul-28 11:32N 31°09' E 122°36'0 0.1
2015-Jul-28 10:25N 31°09' E 122°36'0 0.0
2015-Jul-28 09:25N 31°09' E 122°36'0 0.0
2015-Jul-28 08:33N 31°09' E 122°36'0 0.0
2015-Jul-28 07:24N 31°09' E 122°36'4 4.8
2015-Jul-28 06:33N 31°08' E 122°40'9 9.3
2015-Jul-28 05:34N 31°04' E 122°50'9 9.2
2015-Jul-28 04:32N 30°56' E 122°54'1111.6
2015-Jul-28 03:33N 30°45' E 122°58'1513.6
2015-Jul-28 02:29N 30°32' E 123°06'3115.2
2015-Jul-28 00:24N 30°01' E 123°00'1011.9
2015-Jul-27 23:31N 29°51' E 122°57'2811.7
2015-Jul-27 21:06N 29°23' E 122°49'711.8
2015-Jul-27 20:33N 29°17' E 122°47'38611.0
2015-Jul-26 09:16N 23°58' E 118°42'2111.6
2015-Jul-26 07:25N 23°43' E 118°27'  
Track history (hours):
 
Tides and Currents Weather Stations Pressure Air Temp Water Temp Dewpoint Dewpoint Depression Visibility Wind Speed Wind Dir Waves Ship Positions

Cosco Melbourne

Last reported at 2015-Aug-01 07:32 UTC. Time now 2015-Aug-01 07:49 UTC.
Position N 31°20' E 121°39'.

Type: Ship (hazmat cat A). MMSI: 538002366.

Date/timePositionNaut miles runAvg speedWind from/ knotsBaromVisibWave heightAir tempDewpointWater temp
2015-Aug-01 07:32N 31°20' E 121°39'0 0.0
2015-Aug-01 06:32N 31°20' E 121°39'0 0.0
2015-Aug-01 05:32N 31°20' E 121°39'0 0.0
2015-Aug-01 04:32N 31°20' E 121°39'0 0.0
2015-Aug-01 03:28N 31°20' E 121°39'0 0.0
2015-Aug-01 02:28N 31°20' E 121°39'0 0.0
2015-Aug-01 01:31N 31°20' E 121°39'0 0.0
2015-Aug-01 00:30N 31°20' E 121°39'0 0.0
2015-Jul-31 23:33N 31°20' E 121°39'6 6.5
2015-Jul-31 22:34N 31°18' E 121°46'1312.8
2015-Jul-31 21:33N 31°15' E 122°00'1110.4
2015-Jul-31 20:33N 31°10' E 122°12'1111.4
2015-Jul-31 19:33N 31°06' E 122°24'8 7.7
2015-Jul-31 18:33N 31°07' E 122°33'3 0.9
2015-Jul-31 15:23N 31°09' E 122°36'0 0.0
2015-Jul-31 13:31N 31°09' E 122°36'0 0.0
2015-Jul-31 12:30N 31°09' E 122°36'0 0.0
2015-Jul-31 11:33N 31°09' E 122°36'0 0.0
2015-Jul-31 10:23N 31°09' E 122°36'0 0.0
2015-Jul-31 09:29N 31°09' E 122°36'0 0.0
2015-Jul-31 08:26N 31°09' E 122°36'0 0.1
2015-Jul-31 07:28N 31°09' E 122°36'0 0.0
2015-Jul-31 06:16N 31°09' E 122°36'0 0.0
2015-Jul-31 03:17N 31°09' E 122°36'0 0.0
2015-Jul-31 02:11N 31°09' E 122°36'0 0.0
2015-Jul-30 23:31N 31°09' E 122°36'0 0.0
2015-Jul-30 22:24N 31°09' E 122°36'0 0.0
2015-Jul-30 21:30N 31°09' E 122°36'0 0.0
2015-Jul-30 20:23N 31°09' E 122°36'0 0.0
2015-Jul-30 19:29N 31°09' E 122°36'0 0.0
2015-Jul-30 18:25N 31°09' E 122°36'0 0.0
2015-Jul-30 17:28N 31°09' E 122°36'0 0.0
2015-Jul-30 13:09N 31°09' E 122°36'0 0.0
2015-Jul-30 12:20N 31°09' E 122°36'0 0.0
2015-Jul-30 11:32N 31°09' E 122°36'0 0.0
2015-Jul-30 10:31N 31°09' E 122°36'0 0.0
2015-Jul-30 09:31N 31°09' E 122°36'0 0.0
2015-Jul-30 08:33N 31°09' E 122°36'0 0.0
2015-Jul-30 07:24N 31°09' E 122°36'0 0.0
2015-Jul-30 06:29N 31°09' E 122°36'0 0.1
2015-Jul-30 05:29N 31°09' E 122°36'0 0.0
2015-Jul-30 00:33N 31°09' E 122°36'0 0.1
2015-Jul-29 23:26N 31°09' E 122°36'0 0.0
2015-Jul-29 21:31N 31°09' E 122°36'0 0.0
2015-Jul-29 20:22N 31°09' E 122°36'0 0.0
2015-Jul-29 19:28N 31°09' E 122°36'0 0.0
2015-Jul-29 18:30N 31°09' E 122°36'0 0.0
2015-Jul-29 17:33N 31°09' E 122°36'0 0.0
2015-Jul-29 16:26N 31°09' E 122°36'0 0.0
2015-Jul-29 15:32N 31°09' E 122°36'0 0.0
2015-Jul-29 13:22N 31°09' E 122°36'0 0.0
2015-Jul-29 11:27N 31°09' E 122°36'0 0.0
2015-Jul-29 10:33N 31°09' E 122°36'0 0.1
2015-Jul-29 09:32N 31°09' E 122°36'0 0.1
2015-Jul-29 08:32N 31°09' E 122°36'0 0.0
2015-Jul-29 07:28N 31°09' E 122°36'0 0.0
2015-Jul-29 06:19N 31°09' E 122°36'0 0.0
2015-Jul-29 05:06N 31°09' E 122°36'0 0.0
2015-Jul-28 23:07N 31°09' E 122°36'0 0.0
2015-Jul-28 22:21N 31°09' E 122°36'0 0.0
2015-Jul-28 21:33N 31°09' E 122°36'0 0.0
2015-Jul-28 20:24N 31°09' E 122°36'0 0.0
2015-Jul-28 19:32N 31°09' E 122°36'0 0.0
2015-Jul-28 18:29N 31°09' E 122°36'0 0.0
2015-Jul-28 17:28N 31°09' E 122°36'0 0.0
2015-Jul-28 16:31N 31°09' E 122°36'0 0.0
2015-Jul-28 15:15N 31°09' E 122°36'0 0.0
2015-Jul-28 12:26N 31°09' E 122°36'0 0.1
2015-Jul-28 11:32N 31°09' E 122°36'0 0.1
2015-Jul-28 10:25N 31°09' E 122°36'0 0.0
2015-Jul-28 09:25N 31°09' E 122°36'0 0.0
2015-Jul-28 08:33N 31°09' E 122°36'0 0.0
2015-Jul-28 07:24N 31°09' E 122°36'4 4.8
2015-Jul-28 06:33N 31°08' E 122°40'9 9.3
2015-Jul-28 05:34N 31°04' E 122°50'9 9.2
2015-Jul-28 04:32N 30°56' E 122°54'1111.6
2015-Jul-28 03:33N 30°45' E 122°58'1513.6
2015-Jul-28 02:29N 30°32' E 123°06'3115.2
2015-Jul-28 00:24N 30°01' E 123°00'1011.9
2015-Jul-27 23:31N 29°51' E 122°57'2811.7
2015-Jul-27 21:06N 29°23' E 122°49'711.8
2015-Jul-27 20:33N 29°17' E 122°47'38611.0
2015-Jul-26 09:16N 23°58' E 118°42'2111.6
2015-Jul-26 07:25N 23°43' E 118°27'  

Dump ship's entire track history